createdAt,value
2019-02-02T00:04:03.501Z,30.299999
2019-02-02T00:09:05.903Z,21.200001
2019-02-02T00:14:08.236Z,19.5
2019-02-02T00:19:10.511Z,19.200001
2019-02-02T00:24:12.726Z,26.200001
2019-02-02T00:29:15.006Z,23.299999
2019-02-02T00:34:17.352Z,31.5
2019-02-02T00:39:19.610Z,50.099998
2019-02-02T00:44:21.898Z,34.5
2019-02-02T00:49:24.250Z,42.200001
2019-02-02T00:54:26.582Z,35.700001
2019-02-02T00:59:28.786Z,68.900002
2019-02-02T01:04:31.082Z,64.300003
2019-02-02T01:09:33.309Z,102
2019-02-02T01:14:35.715Z,54.799999
2019-02-02T01:19:37.927Z,52.599998
2019-02-02T01:24:40.287Z,72.699997
2019-02-02T01:29:42.649Z,33.900002
2019-02-02T01:34:44.869Z,47.200001
2019-02-02T01:39:47.196Z,47
2019-02-02T01:44:49.410Z,62.400002
2019-02-02T01:49:51.695Z,42.200001
2019-02-02T01:54:54.056Z,65.699997
2019-02-02T01:59:56.283Z,48.799999
2019-02-02T02:04:58.598Z,41.900002
2019-02-02T02:10:00.937Z,48.400002
2019-02-02T02:15:03.319Z,55
2019-02-02T02:20:05.434Z,39.299999
2019-02-02T02:25:07.794Z,56.299999
2019-02-02T02:30:10.064Z,37.400002
2019-02-02T02:35:12.300Z,37.900002
2019-02-02T02:40:14.728Z,47.900002
2019-02-02T02:45:17.027Z,36.700001
2019-02-02T02:50:19.274Z,45.400002
2019-02-02T02:55:21.535Z,40.299999
2019-02-02T03:00:23.784Z,87.099998
2019-02-02T03:05:26.186Z,54.799999
2019-02-02T03:10:28.415Z,69.300003
2019-02-02T03:15:30.860Z,44.799999
2019-02-02T03:20:33.010Z,69
2019-02-02T03:25:35.258Z,57.299999
2019-02-02T03:30:37.622Z,54.099998
2019-02-02T03:35:39.825Z,63.700001
2019-02-02T03:40:42.286Z,74.699997
2019-02-02T03:45:44.502Z,62.799999
2019-02-02T03:50:46.695Z,60.299999
2019-02-02T03:55:49.296Z,114
2019-02-02T04:00:51.348Z,64.800003
2019-02-02T04:05:53.724Z,63.5
2019-02-02T04:10:55.882Z,78.300003
2019-02-02T04:15:58.303Z,33
2019-02-02T04:21:00.601Z,87.900002
2019-02-02T04:26:02.909Z,45.400002
2019-02-02T04:31:05.192Z,71.599998
2019-02-02T04:36:07.358Z,90.599998
2019-02-02T04:41:09.773Z,60.200001
2019-02-02T04:46:11.996Z,102.699997
2019-02-02T04:51:14.264Z,67.199997
2019-02-02T04:56:16.566Z,44.599998
2019-02-02T05:01:18.893Z,73.099998
2019-02-02T05:06:21.204Z,58.599998
2019-02-02T05:11:23.552Z,120.900002
2019-02-02T05:16:25.800Z,47.099998
2019-02-02T05:21:28.058Z,46.900002
2019-02-02T05:26:30.375Z,48.400002
2019-02-02T05:31:32.645Z,59.099998
2019-02-02T05:37:17.170Z,63.200001
2019-02-02T05:59:38.070Z,42.400002
2019-02-02T06:04:40.526Z,56.799999
2019-02-02T06:09:42.650Z,45.400002
2019-02-02T06:14:44.977Z,31.6
2019-02-02T06:19:47.312Z,47.5
2019-02-02T06:24:52.540Z,42
2019-02-02T06:29:51.876Z,50.799999
2019-02-02T06:34:54.098Z,43.700001
2019-02-02T06:39:56.450Z,57.900002
2019-02-02T06:44:58.723Z,62.700001
2019-02-02T06:50:01.111Z,76.199997
2019-02-02T06:55:03.314Z,65.5
2019-02-02T07:00:15.830Z,74.900002
2019-02-02T07:05:07.995Z,43.900002
2019-02-02T07:10:10.252Z,52.299999
2019-02-02T07:15:12.524Z,56.700001
2019-02-02T07:20:14.811Z,70.599998
2019-02-02T07:25:17.115Z,73.900002
2019-02-02T07:30:28.303Z,90.400002
2019-02-02T07:35:21.695Z,88.300003
2019-02-02T07:40:24.041Z,107.5
2019-02-02T07:45:26.399Z,61
2019-02-02T07:50:28.741Z,70.900002
2019-02-02T07:55:30.856Z,76.699997
2019-02-02T08:00:40.665Z,95.400002
2019-02-02T08:05:35.510Z,88.699997
2019-02-02T08:10:37.761Z,124.800003
2019-02-02T08:15:40.020Z,66.699997
2019-02-02T08:20:42.401Z,73.599998
2019-02-02T08:25:44.610Z,62.599998
2019-02-02T08:30:52.397Z,102.599998
2019-02-02T08:35:49.201Z,98.400002
2019-02-02T08:40:51.478Z,111.800003
2019-02-02T08:45:53.829Z,75.300003
2019-02-02T08:50:56.109Z,107.199997
2019-02-02T08:55:58.445Z,82
2019-02-02T09:01:04.175Z,122.599998
2019-02-02T09:06:02.932Z,107.599998
2019-02-02T09:11:05.362Z,123.300003
2019-02-02T09:16:07.605Z,135
2019-02-02T09:21:09.837Z,113.800003
2019-02-02T09:26:12.119Z,93.400002
2019-02-02T09:31:16.113Z,87.099998
2019-02-02T09:36:17.129Z,105.5
2019-02-02T09:41:19.083Z,92.300003
2019-02-02T09:46:21.349Z,181.600006
2019-02-02T09:51:23.708Z,107.800003
2019-02-02T09:56:25.866Z,92.900002
2019-02-02T10:01:28.267Z,132.199997
2019-02-02T10:06:30.440Z,212.199997
2019-02-02T10:11:32.833Z,162.5
2019-02-02T10:16:35.139Z,121.199997
2019-02-02T10:21:37.345Z,146.300003
2019-02-02T10:26:39.744Z,121.599998
2019-02-02T10:31:42.005Z,185.600006
2019-02-02T10:36:44.278Z,140.5
2019-02-02T10:41:46.484Z,132
2019-02-02T10:46:48.849Z,102.800003
2019-02-02T10:51:51.119Z,88.599998
2019-02-02T10:56:53.459Z,167
2019-02-02T11:01:55.666Z,115.099998
2019-02-02T11:06:58.082Z,167.5
2019-02-02T11:12:00.338Z,92.699997
2019-02-02T11:17:02.854Z,123.5
2019-02-02T11:22:04.952Z,142.100006
2019-02-02T11:27:07.405Z,123.900002
2019-02-02T11:32:09.419Z,88.699997
2019-02-02T11:38:02.980Z,120.900002
2019-02-02T11:43:04.079Z,80.900002
2019-02-02T11:48:06.427Z,98.699997
2019-02-02T11:53:08.688Z,102.599998
2019-02-02T11:58:10.998Z,115.900002
2019-02-02T12:03:13.324Z,108.900002
2019-02-02T12:08:15.504Z,160.100006
2019-02-02T12:13:17.839Z,118.5
2019-02-02T12:18:20.150Z,85.199997
2019-02-02T12:23:22.477Z,161.800003
2019-02-02T12:28:24.752Z,140.399994
2019-02-02T12:33:27.085Z,144.300003
2019-02-02T12:38:29.338Z,67.099998
2019-02-02T12:43:31.640Z,128.699997
2019-02-02T12:48:33.938Z,114.900002
2019-02-02T13:10:56.324Z,76.199997
2019-02-02T13:15:58.439Z,53.599998
2019-02-02T13:21:00.779Z,66.800003
2019-02-02T13:26:05.435Z,90.800003
2019-02-02T13:31:05.336Z,58.5
2019-02-02T13:36:07.600Z,64.099998
2019-02-02T13:41:09.980Z,64.599998
2019-02-02T13:46:12.211Z,70.900002
2019-02-02T13:51:14.508Z,90.400002
2019-02-02T13:56:16.861Z,57.799999
2019-02-02T14:01:19.107Z,54.200001
2019-02-02T14:06:21.437Z,62.299999
2019-02-02T14:11:23.692Z,68.800003
2019-02-02T14:16:25.968Z,69.800003
2019-02-02T14:21:28.287Z,61.5
2019-02-02T14:26:30.540Z,66
2019-02-02T14:31:32.888Z,78
2019-02-02T14:36:35.139Z,63.200001
2019-02-02T14:41:37.364Z,61.5
2019-02-02T14:46:39.747Z,67.300003
2019-02-02T14:51:42.011Z,44.099998
2019-02-02T14:56:47.894Z,108
2019-02-02T15:01:46.571Z,63.099998
2019-02-02T15:06:48.980Z,78.800003
2019-02-02T15:11:51.237Z,43.099998
2019-02-02T15:16:53.563Z,65.900002
2019-02-02T15:21:55.799Z,49.700001
2019-02-02T15:26:58.086Z,34.799999
2019-02-02T15:32:00.467Z,40.799999
2019-02-02T15:37:02.621Z,64
2019-02-02T15:42:04.894Z,69.699997
2019-02-02T15:47:07.210Z,46.099998
2019-02-02T15:52:09.672Z,51.299999
2019-02-02T15:57:11.829Z,37.400002
2019-02-02T16:02:14.183Z,54.299999
2019-02-02T16:12:18.747Z,50.200001
2019-02-02T16:17:20.986Z,70.900002
2019-02-02T16:27:25.617Z,50.5
2019-02-02T16:32:27.884Z,50.599998
2019-02-02T16:37:30.332Z,46.900002
2019-02-02T16:42:32.446Z,48.5
2019-02-02T16:47:34.736Z,39.099998
2019-02-02T16:52:37.146Z,57.400002
2019-02-02T16:57:39.426Z,49.400002
2019-02-02T17:02:41.672Z,56.799999
2019-02-02T17:07:46.230Z,48.799999
2019-02-02T17:12:46.386Z,38.900002
2019-02-02T17:17:48.535Z,35.299999
2019-02-02T17:22:50.807Z,35.700001
2019-02-02T17:27:53.181Z,60.400002
2019-02-02T17:32:55.537Z,54.700001
2019-02-02T17:37:57.828Z,28.200001
2019-02-02T17:42:59.967Z,39.900002
2019-02-02T17:48:02.302Z,55
2019-02-02T17:53:04.590Z,51.200001
2019-02-02T17:58:06.938Z,41.299999
2019-02-02T18:03:09.197Z,45.400002
2019-02-02T18:08:11.508Z,48.799999
2019-02-02T18:13:13.710Z,50.200001
2019-02-02T18:18:16.131Z,38.599998
2019-02-02T18:23:18.728Z,48.599998
2019-02-02T18:28:20.659Z,36.599998
2019-02-02T18:33:22.937Z,91.300003
2019-02-02T18:38:25.186Z,61
2019-02-02T18:43:27.461Z,48.299999
2019-02-02T18:48:29.949Z,58.799999
2019-02-02T18:53:32.049Z,44.299999
2019-02-02T18:58:34.367Z,73.300003
2019-02-02T19:03:36.693Z,45.200001
2019-02-02T19:08:39.029Z,91.099998
2019-02-02T19:13:41.324Z,67.900002
2019-02-02T19:18:43.626Z,45.799999
2019-02-02T19:23:45.846Z,49.299999
2019-02-02T19:28:48.113Z,63.400002
2019-02-02T19:33:50.463Z,69.099998
2019-02-02T19:38:52.747Z,83
2019-02-02T19:43:56.655Z,124.699997
2019-02-02T19:48:57.339Z,81.800003
2019-02-02T19:53:59.629Z,100.099998
2019-02-02T19:59:01.936Z,62.099998
2019-02-02T20:04:04.125Z,72.599998
2019-02-02T20:09:06.605Z,86.099998
2019-02-02T20:24:04.399Z,201.699997
2019-02-02T20:29:05.397Z,101.5
2019-02-02T20:34:06.835Z,103.400002
2019-02-02T20:39:09.120Z,102
2019-02-02T20:44:11.378Z,73.900002
2019-02-02T20:49:13.796Z,85.800003
2019-02-02T20:54:18.834Z,139.300003
2019-02-02T20:59:18.324Z,135.100006
2019-02-02T21:04:20.516Z,89.800003
2019-02-02T21:09:22.998Z,123.800003
2019-02-02T21:14:25.177Z,108.599998
2019-02-02T21:19:27.396Z,66.599998
2019-02-02T21:24:29.785Z,117.199997
2019-02-02T21:29:32.190Z,58.799999
2019-02-02T21:34:34.360Z,79.400002
2019-02-02T21:39:36.616Z,125.900002
2019-02-02T21:44:43.354Z,141.699997
2019-02-02T21:49:41.218Z,96.400002
2019-02-02T21:54:43.605Z,90.400002
2019-02-02T22:04:48.124Z,86
2019-02-02T22:09:50.362Z,117.199997
2019-02-02T22:14:52.846Z,189.5
2019-02-02T22:19:55.136Z,85
2019-02-02T22:25:13.211Z,125.400002
2019-02-02T22:30:14.321Z,82.199997
2019-02-02T22:35:16.759Z,115.900002
2019-02-02T22:40:18.903Z,77.400002
2019-02-02T22:45:21.189Z,148.699997
2019-02-02T22:50:23.539Z,83.099998
2019-02-02T22:55:25.880Z,115.900002
2019-02-02T23:00:28.127Z,82
2019-02-02T23:05:30.404Z,134.399994
2019-02-02T23:10:32.820Z,107
2019-02-02T23:15:35.033Z,107.199997
2019-02-02T23:20:37.358Z,85.400002
2019-02-02T23:25:39.580Z,81.099998
2019-02-02T23:30:41.927Z,90.099998
2019-02-02T23:35:44.180Z,84.900002
2019-02-02T23:40:46.399Z,71.5
2019-02-02T23:45:48.872Z,133
2019-02-02T23:50:51.088Z,66.199997
2019-02-02T23:55:53.372Z,80.900002
